createdAt,value
2022-09-24T00:00:44.435Z,4.03
2022-09-24T00:06:06.215Z,4.13
2022-09-24T00:11:26.583Z,4.37
2022-09-24T00:17:12.905Z,4.27
2022-09-24T00:22:38.506Z,4.27
2022-09-24T00:27:54.005Z,4.20
2022-09-24T00:38:32.856Z,4.60
2022-09-24T00:43:45.124Z,5.13
2022-09-24T00:49:05.148Z,4.47
2022-09-24T00:54:19.507Z,4.63
2022-09-24T00:59:29.735Z,4.20
2022-09-24T01:04:38.946Z,4.57
2022-09-24T01:10:01.298Z,4.57
2022-09-24T01:15:25.704Z,4.13
2022-09-24T01:20:57.184Z,4.47
2022-09-24T01:26:32.957Z,4.43
2022-09-24T01:37:26.305Z,4.63
2022-09-24T01:42:45.990Z,4.97
2022-09-24T01:48:00.382Z,4.83
2022-09-24T01:53:11.831Z,4.80
2022-09-24T01:58:29.234Z,5.00
2022-09-24T02:03:43.750Z,5.00
2022-09-24T02:08:56.074Z,4.80
2022-09-24T02:14:16.828Z,4.87
2022-09-24T02:19:37.038Z,4.80
2022-09-24T02:24:51.715Z,4.93
2022-09-24T02:29:57.110Z,4.67
2022-09-24T02:35:09.843Z,4.67
2022-09-24T02:40:20.856Z,3.90
2022-09-24T02:45:25.369Z,4.23
2022-09-24T02:50:29.588Z,4.30
2022-09-24T02:55:39.220Z,4.47
2022-09-24T03:00:42.049Z,4.10
2022-09-24T03:05:48.682Z,3.87
2022-09-24T03:10:51.690Z,4.27
2022-09-24T03:15:54.586Z,4.40
2022-09-24T03:21:04.043Z,4.23
2022-09-24T03:26:11.445Z,4.10
2022-09-24T03:31:16.970Z,4.20
2022-09-24T03:36:26.779Z,4.37
2022-09-24T03:41:29.758Z,4.37
2022-09-24T03:46:32.673Z,4.40
2022-09-24T03:51:40.821Z,4.60
2022-09-24T03:56:51.432Z,4.03
2022-09-24T04:01:57.329Z,3.97
2022-09-24T04:07:05.230Z,4.33
2022-09-24T04:12:08.219Z,4.20
2022-09-24T04:17:14.406Z,4.30
2022-09-24T04:22:22.363Z,4.30
2022-09-24T04:27:25.309Z,4.53
2022-09-24T04:32:28.338Z,4.73
2022-09-24T04:37:34.731Z,5.03
2022-09-24T04:42:46.310Z,4.63
2022-09-24T04:47:59.586Z,4.63
2022-09-24T04:53:06.009Z,4.23
2022-09-24T04:58:09.302Z,4.73
2022-09-24T05:03:11.999Z,4.40
2022-09-24T05:08:16.400Z,4.53
2022-09-24T05:13:19.047Z,4.17
2022-09-24T05:18:21.670Z,4.63
2022-09-24T05:23:25.914Z,4.63
2022-09-24T05:28:28.517Z,8.27
2022-09-24T05:33:31.162Z,6.30
2022-09-24T05:38:35.128Z,5.57
2022-09-24T05:43:38.470Z,5.27
2022-09-24T05:48:41.179Z,4.37
2022-09-24T05:53:45.156Z,4.90
2022-09-24T05:58:50.031Z,4.40
2022-09-24T06:03:52.670Z,4.30
2022-09-24T06:08:57.138Z,4.30
2022-09-24T06:13:59.879Z,4.60
2022-09-24T06:19:02.717Z,4.80
2022-09-24T06:24:07.136Z,4.77
2022-09-24T06:29:10.024Z,5.83
2022-09-24T06:34:12.737Z,4.77
2022-09-24T06:39:16.712Z,4.20
2022-09-24T06:44:19.592Z,4.53
2022-09-24T06:49:22.291Z,4.00
2022-09-24T06:54:26.366Z,5.23
2022-09-24T06:59:29.440Z,4.77
2022-09-24T07:04:32.115Z,4.93
2022-09-24T07:09:37.776Z,4.50
2022-09-24T07:14:40.409Z,4.30
2022-09-24T07:19:43.396Z,4.20
2022-09-24T07:24:47.987Z,4.67
2022-09-24T07:29:50.738Z,4.43
2022-09-24T07:34:54.153Z,4.00
2022-09-24T07:39:58.288Z,4.00
2022-09-24T07:45:01.168Z,4.45
2022-09-24T07:50:04.206Z,4.88
2022-09-24T07:55:09.446Z,4.90
2022-09-24T08:00:13.757Z,4.35
2022-09-24T08:05:18.033Z,4.55
2022-09-24T08:10:22.365Z,4.28
2022-09-24T08:15:25.024Z,4.15
2022-09-24T08:20:27.632Z,4.35
2022-09-24T08:25:31.810Z,3.75
2022-09-24T08:30:35.167Z,3.53
2022-09-24T08:35:39.999Z,4.03
2022-09-24T08:40:51.012Z,3.38
2022-09-24T08:46:15.191Z,3.25
2022-09-24T08:51:20.383Z,3.63
2022-09-24T08:56:28.540Z,3.53
2022-09-24T09:01:39.323Z,3.45
2022-09-24T09:07:03.298Z,3.38
2022-09-24T09:12:14.795Z,3.38
2022-09-24T09:17:30.277Z,3.50
2022-09-24T09:22:40.413Z,3.25
2022-09-24T09:27:44.505Z,3.63
2022-09-24T09:33:02.218Z,4.00
2022-09-24T09:38:17.128Z,2.72
2022-09-24T09:43:21.786Z,3.38
2022-09-24T09:48:29.182Z,3.20
2022-09-24T09:53:33.171Z,3.28
2022-09-24T09:58:40.981Z,3.05
2022-09-24T10:03:49.959Z,3.65
2022-09-24T10:08:52.748Z,3.20
2022-09-24T10:14:04.805Z,3.42
2022-09-24T10:19:18.109Z,2.85
2022-09-24T10:24:23.573Z,2.30
2022-09-24T10:29:51.820Z,2.20
2022-09-24T10:34:58.608Z,2.28
2022-09-24T10:40:03.021Z,2.20
2022-09-24T10:45:14.891Z,2.17
2022-09-24T10:50:30.354Z,2.40
2022-09-24T10:55:39.182Z,1.70
2022-09-24T11:00:53.204Z,2.00
2022-09-24T11:06:02.483Z,1.95
2022-09-24T11:11:21.855Z,1.67
2022-09-24T11:16:48.337Z,1.90
2022-09-24T11:22:10.239Z,1.70
2022-09-24T11:27:36.202Z,1.75
2022-09-24T11:32:50.515Z,1.65
2022-09-24T11:38:00.743Z,1.65
2022-09-24T11:43:19.304Z,1.70
2022-09-24T11:49:02.736Z,2.00
2022-09-24T11:54:11.419Z,1.95
2022-09-24T11:59:24.018Z,1.50
2022-09-24T12:04:34.361Z,1.90
2022-09-24T12:09:43.963Z,1.70
2022-09-24T12:14:53.955Z,1.80
2022-09-24T12:20:02.572Z,1.50
2022-09-24T12:25:08.436Z,1.70
2022-09-24T12:30:40.264Z,1.63
2022-09-24T12:35:56.379Z,1.95
2022-09-24T12:41:22.895Z,1.48
2022-09-24T12:46:28.842Z,1.60
2022-09-24T12:51:39.871Z,1.83
2022-09-24T12:56:42.740Z,1.70
2022-09-24T13:01:45.601Z,1.70
2022-09-24T13:06:49.941Z,1.70
2022-09-24T13:12:02.889Z,1.75
2022-09-24T13:17:07.549Z,1.85
2022-09-24T13:22:23.870Z,1.90
2022-09-24T13:27:37.687Z,1.55
2022-09-24T13:32:47.524Z,1.48
2022-09-24T13:37:56.703Z,1.65
2022-09-24T13:43:05.050Z,1.70
2022-09-24T13:48:20.178Z,1.58
2022-09-24T13:53:30.612Z,1.50
2022-09-24T13:58:34.906Z,1.60
2022-09-24T14:03:38.485Z,1.55
2022-09-24T14:08:44.523Z,1.50
2022-09-24T14:13:47.356Z,1.40
2022-09-24T14:19:01.005Z,1.67
2022-09-24T14:24:09.079Z,1.38
2022-09-24T14:29:14.936Z,1.73
2022-09-24T14:34:27.050Z,1.40
2022-09-24T14:39:31.128Z,1.50
2022-09-24T14:44:33.896Z,1.50
2022-09-24T14:49:45.178Z,1.77
2022-09-24T14:54:49.305Z,1.88
2022-09-24T14:59:52.944Z,2.25
2022-09-24T15:05:03.271Z,2.67
2022-09-24T15:10:21.817Z,2.63
2022-09-24T15:15:40.017Z,2.50
2022-09-24T15:20:44.218Z,2.40
2022-09-24T15:25:48.499Z,2.60
2022-09-24T15:30:51.147Z,2.80
2022-09-24T15:35:54.882Z,2.60
2022-09-24T15:40:59.259Z,2.72
2022-09-24T15:46:01.952Z,3.05
2022-09-24T15:51:10.990Z,3.35
2022-09-24T15:56:17.257Z,3.78
2022-09-24T16:01:20.266Z,3.72
2022-09-24T16:06:24.023Z,3.75
2022-09-24T16:11:28.289Z,5.25
2022-09-24T16:16:30.994Z,5.10
2022-09-24T16:21:33.695Z,4.60
2022-09-24T16:26:38.489Z,4.38
2022-09-24T16:31:41.188Z,4.35
2022-09-24T16:36:43.964Z,5.13
2022-09-24T16:41:50.345Z,5.10
2022-09-24T16:46:53.025Z,5.65
2022-09-24T16:51:55.896Z,6.28
2022-09-24T16:57:01.759Z,5.65
2022-09-24T17:02:04.450Z,6.00
2022-09-24T17:07:07.400Z,7.30
2022-09-24T17:12:11.579Z,6.53
2022-09-24T17:17:14.609Z,6.78
2022-09-24T17:22:17.211Z,6.03
2022-09-24T17:27:21.166Z,6.45
2022-09-24T17:32:23.794Z,6.50
2022-09-24T17:37:27.234Z,6.75
2022-09-24T17:42:33.071Z,6.75
2022-09-24T17:47:49.683Z,6.53
2022-09-24T17:52:52.266Z,6.15
2022-09-24T17:57:56.222Z,6.13
2022-09-24T18:02:58.876Z,6.20
2022-09-24T18:08:01.659Z,6.70
2022-09-24T18:13:05.962Z,6.78
2022-09-24T18:18:08.691Z,6.97
2022-09-24T18:23:11.331Z,7.00
2022-09-24T18:28:18.526Z,6.63
2022-09-24T18:33:21.562Z,6.53
2022-09-24T18:38:24.843Z,7.13
2022-09-24T18:43:30.413Z,7.85
2022-09-24T18:48:33.835Z,7.32
2022-09-24T18:53:36.465Z,7.65
2022-09-24T18:58:40.451Z,8.13
2022-09-24T19:03:43.410Z,7.65
2022-09-24T19:08:46.373Z,6.47
2022-09-24T19:13:52.022Z,6.25
2022-09-24T19:18:55.440Z,6.85
2022-09-24T19:23:59.433Z,7.05
2022-09-24T19:29:03.793Z,9.23
2022-09-24T19:34:08.074Z,9.65
2022-09-24T19:39:11.155Z,10.73
2022-09-24T19:44:16.583Z,10.38
2022-09-24T19:49:20.144Z,11.50
2022-09-24T19:54:22.964Z,11.90
2022-09-24T19:59:27.046Z,12.48
2022-09-24T20:04:29.800Z,14.05
2022-09-24T20:09:32.607Z,13.27
2022-09-24T20:14:36.550Z,10.57
2022-09-24T20:19:39.255Z,10.00
2022-09-24T20:24:41.969Z,9.73
2022-09-24T20:29:48.023Z,11.10
2022-09-24T20:34:50.658Z,10.30
2022-09-24T20:39:53.247Z,9.90
2022-09-24T20:44:57.403Z,9.27
2022-09-24T20:50:00.881Z,9.68
2022-09-24T20:55:03.866Z,10.60
2022-09-24T21:00:09.280Z,10.70
2022-09-24T21:05:12.249Z,9.02
2022-09-24T21:10:14.898Z,10.23
2022-09-24T21:15:18.899Z,9.15
2022-09-24T21:20:21.506Z,9.73
2022-09-24T21:25:52.400Z,9.30
2022-09-24T21:30:59.745Z,9.52
2022-09-24T21:36:02.872Z,11.20
2022-09-24T21:41:08.225Z,9.02
2022-09-24T21:46:13.748Z,9.40
2022-09-24T21:51:19.317Z,9.30
2022-09-24T21:56:22.964Z,9.85
2022-09-24T22:01:28.953Z,9.77
2022-09-24T22:06:32.716Z,10.52
2022-09-24T22:11:36.576Z,9.03
2022-09-24T22:16:40.783Z,9.60
2022-09-24T22:21:43.734Z,9.00
2022-09-24T22:26:46.928Z,9.50
2022-09-24T22:31:50.876Z,8.88
2022-09-24T22:36:53.555Z,8.82
2022-09-24T22:41:56.157Z,8.45
2022-09-24T22:47:00.158Z,8.90
2022-09-24T22:52:03.128Z,9.68
2022-09-24T22:57:05.727Z,8.63
2022-09-24T23:02:13.134Z,8.75
2022-09-24T23:07:16.897Z,9.10
2022-09-24T23:12:19.672Z,9.50
2022-09-24T23:17:23.608Z,9.77
2022-09-24T23:22:26.236Z,9.13
2022-09-24T23:27:29.054Z,8.75
2022-09-24T23:32:33.052Z,9.60
2022-09-24T23:37:36.243Z,9.57
2022-09-24T23:42:38.859Z,10.17
2022-09-24T23:47:42.802Z,9.75
2022-09-24T23:52:45.456Z,9.30
2022-09-24T23:57:48.072Z,9.10
